createdAt,value
2019-03-21T00:00:58.119Z,99.90
2019-03-21T00:03:26.498Z,99.90
2019-03-21T00:05:54.889Z,99.90
2019-03-21T00:08:23.271Z,99.90
2019-03-21T00:11:12.776Z,99.90
2019-03-21T00:13:41.169Z,99.90
2019-03-21T00:16:13.934Z,99.90
2019-03-21T00:18:42.388Z,99.90
2019-03-21T00:21:10.770Z,99.90
2019-03-21T00:23:39.151Z,99.90
2019-03-21T00:26:07.535Z,99.90
2019-03-21T00:28:35.916Z,99.90
2019-03-21T00:31:04.303Z,99.90
2019-03-21T00:33:32.921Z,99.90
2019-03-21T00:36:01.313Z,99.90
2019-03-21T00:38:29.697Z,99.90
2019-03-21T00:40:58.069Z,99.90
2019-03-21T00:43:26.456Z,99.90
2019-03-21T00:45:54.832Z,99.90
2019-03-21T00:48:23.219Z,99.90
2019-03-21T00:50:51.599Z,99.90
2019-03-21T00:53:19.992Z,99.90
2019-03-21T00:55:54.404Z,99.90
2019-03-21T00:58:22.777Z,99.90
2019-03-21T01:00:57.028Z,99.90
2019-03-21T01:03:25.579Z,99.90
2019-03-21T01:05:53.991Z,99.90
2019-03-21T01:08:22.579Z,99.90
2019-03-21T01:10:51.808Z,99.90
2019-03-21T01:13:20.267Z,99.90
2019-03-21T01:15:48.645Z,99.90
2019-03-21T01:18:17.038Z,99.90
2019-03-21T01:20:45.421Z,99.90
2019-03-21T01:23:13.800Z,99.90
2019-03-21T01:25:53.891Z,99.90
2019-03-21T01:28:22.273Z,99.90
2019-03-21T01:30:50.655Z,99.90
2019-03-21T01:33:19.056Z,99.90
2019-03-21T01:35:47.451Z,99.90
2019-03-21T01:38:15.831Z,99.90
2019-03-21T01:40:47.210Z,99.90
2019-03-21T01:43:15.595Z,99.90
2019-03-21T01:45:43.988Z,99.90
2019-03-21T01:48:12.368Z,99.90
2019-03-21T01:50:41.900Z,99.90
2019-03-21T01:53:10.290Z,99.90
2019-03-21T01:55:38.660Z,99.90
2019-03-21T01:58:07.047Z,99.90
2019-03-21T02:00:38.632Z,99.90
2019-03-21T02:03:07.077Z,99.90
2019-03-21T02:05:35.604Z,99.90
2019-03-21T02:08:04.365Z,99.90
2019-03-21T02:10:32.811Z,99.90
2019-03-21T02:13:01.187Z,99.90
2019-03-21T02:15:29.591Z,99.90
2019-03-21T02:17:57.975Z,99.90
2019-03-21T02:20:26.635Z,99.90
2019-03-21T02:22:55.024Z,99.90
2019-03-21T02:25:31.654Z,99.90
2019-03-21T02:28:00.052Z,99.90
2019-03-21T02:30:31.243Z,99.90
2019-03-21T02:33:03.184Z,99.90
2019-03-21T02:35:31.617Z,99.90
2019-03-21T02:38:00.013Z,99.90
2019-03-21T02:40:28.392Z,99.90
2019-03-21T02:42:56.996Z,99.90
2019-03-21T02:45:25.389Z,99.90
2019-03-21T02:47:53.775Z,99.90
2019-03-21T02:50:31.105Z,99.90
2019-03-21T02:52:59.534Z,99.90
2019-03-21T02:55:27.923Z,99.90
2019-03-21T02:57:56.310Z,99.90
2019-03-21T03:00:27.700Z,99.90
2019-03-21T03:02:57.632Z,99.90
2019-03-21T03:05:31.003Z,99.90
2019-03-21T03:07:59.506Z,99.90
2019-03-21T03:10:33.609Z,99.90
2019-03-21T03:13:01.992Z,99.90
2019-03-21T03:15:51.232Z,99.90
2019-03-21T03:18:21.639Z,99.90
2019-03-21T03:20:50.024Z,99.90
2019-03-21T03:23:18.463Z,99.90
2019-03-21T03:25:50.350Z,99.90
2019-03-21T03:28:22.733Z,99.90
2019-03-21T03:30:53.502Z,99.90
2019-03-21T03:33:21.923Z,99.90
2019-03-21T03:35:50.302Z,99.90
2019-03-21T03:38:18.704Z,99.90
2019-03-21T03:40:52.931Z,99.90
2019-03-21T03:43:21.319Z,99.90
2019-03-21T03:45:49.702Z,99.90
2019-03-21T03:48:19.937Z,99.90
2019-03-21T03:50:48.192Z,99.90
2019-03-21T03:53:16.582Z,99.90
2019-03-21T03:55:45.125Z,99.90
2019-03-21T03:58:27.357Z,99.90
2019-03-21T04:00:55.799Z,99.90
2019-03-21T04:03:25.977Z,99.90
2019-03-21T04:05:54.444Z,99.90
2019-03-21T04:08:22.803Z,99.90
2019-03-21T04:10:53.027Z,99.90
2019-03-21T04:13:21.407Z,99.90
2019-03-21T04:15:52.927Z,99.90
2019-03-21T04:18:22.151Z,99.90
2019-03-21T04:20:53.671Z,99.90
2019-03-21T04:23:23.896Z,99.90
2019-03-21T04:26:21.963Z,99.90
2019-03-21T04:28:50.440Z,99.90
2019-03-21T04:31:18.808Z,99.90
2019-03-21T04:33:48.737Z,99.90
2019-03-21T04:36:36.475Z,99.90
2019-03-21T04:39:07.605Z,99.90
2019-03-21T04:41:36.374Z,99.90
2019-03-21T04:44:04.813Z,99.90
2019-03-21T04:46:33.180Z,99.90
2019-03-21T04:49:01.566Z,99.90
2019-03-21T04:51:29.953Z,99.90
2019-03-21T04:53:58.354Z,99.90
2019-03-21T04:56:26.731Z,99.90
2019-03-21T04:58:55.108Z,99.90
2019-03-21T05:01:23.516Z,99.90
2019-03-21T05:03:51.897Z,99.90
2019-03-21T05:06:20.274Z,99.90
2019-03-21T05:08:48.664Z,99.90
2019-03-21T05:11:17.052Z,99.90
2019-03-21T05:13:45.424Z,99.90
2019-03-21T05:16:14.978Z,99.90
2019-03-21T05:18:46.649Z,99.90
2019-03-21T05:21:18.099Z,99.90
2019-03-21T05:23:46.492Z,99.90
2019-03-21T05:26:14.941Z,99.90
2019-03-21T05:28:43.324Z,99.90
2019-03-21T05:31:15.120Z,99.90
2019-03-21T05:33:43.499Z,99.90
2019-03-21T05:36:11.884Z,99.90
2019-03-21T05:38:40.262Z,99.90
2019-03-21T05:41:08.640Z,99.90
2019-03-21T05:43:43.012Z,99.90
2019-03-21T05:46:11.387Z,99.90
2019-03-21T05:48:39.763Z,99.90
2019-03-21T05:51:08.165Z,99.90
2019-03-21T05:53:36.556Z,99.90
2019-03-21T05:56:04.939Z,99.90
2019-03-21T05:58:33.343Z,99.90
2019-03-21T06:01:07.127Z,99.90
2019-03-21T06:03:52.643Z,99.90
2019-03-21T06:06:26.876Z,99.90
2019-03-21T06:08:55.260Z,99.90
2019-03-21T06:11:23.827Z,99.90
2019-03-21T06:13:52.203Z,99.90
2019-03-21T06:16:20.649Z,99.90
2019-03-21T06:18:52.136Z,99.90
2019-03-21T06:21:32.580Z,99.90
2019-03-21T06:24:22.215Z,99.90
2019-03-21T06:26:58.983Z,99.90
2019-03-21T06:29:27.371Z,99.90
2019-03-21T06:31:55.753Z,99.90
2019-03-21T06:34:24.141Z,99.90
2019-03-21T06:36:52.521Z,99.90
2019-03-21T06:39:20.909Z,99.90
2019-03-21T06:41:49.309Z,99.90
2019-03-21T06:44:17.695Z,99.90
2019-03-21T06:46:49.732Z,99.90
2019-03-21T06:49:16.183Z,99.90
2019-03-21T06:51:44.586Z,99.90
2019-03-21T06:54:12.963Z,99.90
2019-03-21T06:56:41.353Z,99.90
2019-03-21T06:59:09.745Z,99.90
2019-03-21T07:01:38.132Z,99.90
2019-03-21T07:04:07.563Z,99.90
2019-03-21T07:06:36.188Z,99.90
2019-03-21T07:09:07.195Z,99.90
2019-03-21T07:11:35.596Z,99.90
2019-03-21T07:14:04.136Z,99.90
2019-03-21T07:16:32.511Z,99.90
2019-03-21T07:19:00.891Z,99.90
2019-03-21T07:21:29.352Z,99.90
2019-03-21T07:23:57.736Z,99.90
2019-03-21T07:26:26.125Z,99.90
2019-03-21T07:28:54.513Z,99.90
2019-03-21T07:31:22.900Z,99.90
2019-03-21T07:33:51.296Z,99.90
2019-03-21T07:36:19.676Z,99.10
2019-03-21T07:38:48.059Z,97.70
2019-03-21T07:41:16.451Z,94.70
2019-03-21T07:43:44.852Z,92.50
2019-03-21T07:46:13.237Z,90.20
2019-03-21T07:48:41.620Z,84.50
2019-03-21T07:51:10.020Z,82.90
2019-03-21T07:53:38.399Z,77.80
2019-03-21T07:56:06.802Z,74.80
2019-03-21T07:58:35.174Z,71.30
2019-03-21T08:01:03.554Z,67.70
2019-03-21T08:03:31.944Z,66.80
2019-03-21T08:06:00.353Z,61.50
2019-03-21T08:08:28.737Z,60.00
2019-03-21T08:10:57.121Z,61.70
2019-03-21T08:13:25.511Z,64.50
2019-03-21T08:15:53.902Z,63.30
2019-03-21T08:18:22.267Z,60.80
2019-03-21T08:20:56.459Z,60.00
2019-03-21T08:23:20.780Z,58.80
2019-03-21T08:25:49.168Z,60.60
2019-03-21T08:28:17.566Z,58.10
2019-03-21T08:31:03.823Z,56.60
2019-03-21T08:33:32.221Z,53.80
2019-03-21T08:36:00.600Z,53.10
2019-03-21T08:38:28.979Z,51.30
2019-03-21T08:40:57.384Z,51.90
2019-03-21T08:43:25.764Z,52.80
2019-03-21T08:45:54.156Z,51.10
2019-03-21T08:48:22.539Z,49.50
2019-03-21T08:50:50.928Z,46.10
2019-03-21T08:53:19.320Z,46.20
2019-03-21T08:55:47.716Z,43.70
2019-03-21T08:58:16.117Z,43.40
2019-03-21T09:00:44.507Z,42.30
2019-03-21T09:03:12.904Z,41.60
2019-03-21T09:05:41.285Z,40.40
2019-03-21T09:08:09.680Z,39.80
2019-03-21T09:10:38.067Z,38.60
2019-03-21T09:13:06.447Z,38.00
2019-03-21T09:15:34.849Z,38.30
2019-03-21T09:18:03.274Z,38.70
2019-03-21T09:20:31.652Z,39.00
2019-03-21T09:23:00.040Z,39.60
2019-03-21T09:25:28.435Z,39.00
2019-03-21T09:28:02.492Z,38.40
2019-03-21T09:30:26.935Z,38.10
2019-03-21T09:33:14.669Z,37.10
2019-03-21T09:35:43.157Z,37.50
2019-03-21T09:38:11.568Z,37.00
2019-03-21T09:40:39.942Z,36.60
2019-03-21T09:43:08.385Z,35.50
2019-03-21T09:45:36.775Z,33.90
2019-03-21T09:48:05.160Z,33.50
2019-03-21T09:50:33.535Z,33.60
2019-03-21T09:53:01.925Z,32.80
2019-03-21T09:55:30.307Z,32.80
2019-03-21T09:57:58.683Z,32.10
2019-03-21T10:00:32.596Z,32.30
2019-03-21T10:03:01.043Z,31.90
2019-03-21T10:05:48.776Z,32.10
2019-03-21T10:08:17.177Z,32.90
2019-03-21T10:10:45.556Z,33.40
2019-03-21T10:13:13.963Z,33.30
2019-03-21T10:15:42.344Z,33.20
2019-03-21T10:18:10.726Z,33.50
2019-03-21T10:20:39.123Z,33.60
2019-03-21T10:23:07.513Z,34.50
2019-03-21T10:25:35.979Z,34.70
2019-03-21T10:28:04.603Z,34.10
2019-03-21T10:30:38.952Z,32.30
2019-03-21T10:33:09.276Z,31.50
2019-03-21T10:35:37.651Z,31.30
2019-03-21T10:38:06.982Z,30.50
2019-03-21T10:40:35.594Z,29.90
2019-03-21T10:43:04.621Z,30.20
2019-03-21T10:45:33.375Z,30.30
2019-03-21T10:48:01.761Z,29.40
2019-03-21T10:50:38.110Z,29.30
2019-03-21T10:53:07.515Z,29.80
2019-03-21T10:55:35.968Z,28.80
2019-03-21T10:58:05.396Z,28.20
2019-03-21T11:00:33.852Z,28.60
2019-03-21T11:03:02.246Z,29.10
2019-03-21T11:05:30.631Z,29.50
2019-03-21T11:07:59.020Z,29.40
2019-03-21T11:10:27.416Z,29.10
2019-03-21T11:12:55.787Z,30.00
2019-03-21T11:15:24.173Z,28.50
2019-03-21T11:17:52.619Z,28.30
2019-03-21T11:20:26.921Z,28.40
2019-03-21T11:22:55.871Z,28.20
2019-03-21T11:25:24.483Z,28.10
2019-03-21T11:27:52.937Z,27.70
2019-03-21T11:30:24.384Z,27.70
2019-03-21T11:32:52.771Z,27.40
2019-03-21T11:35:21.164Z,27.90
2019-03-21T11:37:49.540Z,27.50
2019-03-21T11:40:17.920Z,26.70
2019-03-21T11:42:46.312Z,26.70
2019-03-21T11:45:15.204Z,27.10
2019-03-21T11:47:43.783Z,27.00
2019-03-21T11:50:12.328Z,26.20
2019-03-21T11:52:41.259Z,26.50
2019-03-21T11:55:10.514Z,26.30
2019-03-21T11:57:38.887Z,26.30
2019-03-21T12:00:08.515Z,26.10
2019-03-21T12:02:36.919Z,26.70
2019-03-21T12:05:06.532Z,25.50
2019-03-21T12:07:34.911Z,24.90
2019-03-21T12:10:04.043Z,24.90
2019-03-21T12:12:32.432Z,25.90
2019-03-21T12:15:00.817Z,24.50
2019-03-21T12:17:29.196Z,24.60
2019-03-21T12:19:57.580Z,24.80
2019-03-21T12:22:30.161Z,24.60
2019-03-21T12:24:56.067Z,24.20
2019-03-21T12:27:24.447Z,25.60
2019-03-21T12:29:52.832Z,25.50
2019-03-21T12:32:21.298Z,26.30
2019-03-21T12:34:49.668Z,25.40
2019-03-21T12:37:18.055Z,26.10
2019-03-21T12:39:46.440Z,25.10
2019-03-21T12:42:14.828Z,25.40
2019-03-21T12:44:43.207Z,25.10
2019-03-21T12:47:11.597Z,26.30
2019-03-21T12:49:39.987Z,25.60
2019-03-21T12:52:08.376Z,25.90
2019-03-21T12:54:36.761Z,26.20
2019-03-21T12:57:05.164Z,25.90
2019-03-21T12:59:33.607Z,25.70
2019-03-21T13:02:01.988Z,25.80
2019-03-21T13:04:30.364Z,26.00
2019-03-21T13:06:58.757Z,26.20
2019-03-21T13:09:27.137Z,25.50
2019-03-21T13:11:55.512Z,25.90
2019-03-21T13:14:23.904Z,25.70
2019-03-21T13:16:52.288Z,25.90
2019-03-21T13:19:20.667Z,25.90
2019-03-21T13:21:49.308Z,24.60
2019-03-21T13:24:19.569Z,25.30
2019-03-21T13:26:47.804Z,24.70
2019-03-21T13:29:16.181Z,24.90
2019-03-21T13:31:44.577Z,24.90
2019-03-21T13:34:12.963Z,24.90
2019-03-21T13:36:41.350Z,25.30
2019-03-21T13:39:09.737Z,25.20
2019-03-21T13:41:38.112Z,25.00
2019-03-21T13:44:06.504Z,26.20
2019-03-21T13:46:34.901Z,26.20
2019-03-21T13:49:05.815Z,25.90
2019-03-21T13:51:33.400Z,25.70
2019-03-21T13:54:01.780Z,25.10
2019-03-21T13:56:38.030Z,25.10
2019-03-21T13:59:00.344Z,24.70
2019-03-21T14:01:28.803Z,25.20
2019-03-21T14:03:57.187Z,25.00
2019-03-21T14:06:25.585Z,25.60
2019-03-21T14:08:53.972Z,25.30
2019-03-21T14:11:22.364Z,25.40
2019-03-21T14:13:50.751Z,25.50
2019-03-21T14:16:19.128Z,24.90
2019-03-21T14:18:47.517Z,24.80
2019-03-21T14:21:15.897Z,24.50
2019-03-21T14:23:44.288Z,25.10
2019-03-21T14:26:12.665Z,25.00
2019-03-21T14:28:41.044Z,25.90
2019-03-21T14:31:09.452Z,26.30
2019-03-21T14:33:37.896Z,25.40
2019-03-21T14:36:06.287Z,25.20
2019-03-21T14:38:34.659Z,24.80
2019-03-21T14:41:03.052Z,25.00
2019-03-21T14:43:31.440Z,25.00
2019-03-21T14:45:59.816Z,25.70
2019-03-21T14:48:28.208Z,26.50
2019-03-21T14:50:56.588Z,25.20
2019-03-21T14:53:29.033Z,25.90
2019-03-21T14:55:55.080Z,26.00
2019-03-21T14:58:23.466Z,25.90
2019-03-21T15:00:51.857Z,25.80
2019-03-21T15:03:20.515Z,25.80
2019-03-21T15:05:48.887Z,26.20
2019-03-21T15:08:17.272Z,26.80
2019-03-21T15:10:45.667Z,26.50
2019-03-21T15:13:14.070Z,26.60
2019-03-21T15:15:42.447Z,26.50
2019-03-21T15:18:10.841Z,26.90
2019-03-21T15:20:39.221Z,26.70
2019-03-21T15:23:07.611Z,26.60
2019-03-21T15:25:36.084Z,27.40
2019-03-21T15:28:04.448Z,27.40
2019-03-21T15:30:32.840Z,27.60
2019-03-21T15:33:01.223Z,28.00
2019-03-21T15:35:29.608Z,29.10
2019-03-21T15:37:57.991Z,28.80
2019-03-21T15:40:26.379Z,28.40
2019-03-21T15:42:56.912Z,29.10
2019-03-21T15:45:24.887Z,29.60
2019-03-21T15:47:53.263Z,30.60
2019-03-21T15:50:38.379Z,31.00
2019-03-21T15:53:08.277Z,31.30
2019-03-21T15:55:36.717Z,32.40
2019-03-21T15:58:05.187Z,31.60
2019-03-21T16:00:43.973Z,31.40
2019-03-21T16:03:12.900Z,31.30
2019-03-21T16:05:41.535Z,32.60
2019-03-21T16:08:10.453Z,33.60
2019-03-21T16:10:38.925Z,37.20
2019-03-21T16:13:07.305Z,35.90
2019-03-21T16:15:35.755Z,36.30
2019-03-21T16:18:04.593Z,37.30
2019-03-21T16:20:32.967Z,37.30
2019-03-21T16:23:01.364Z,35.80
2019-03-21T16:25:29.744Z,33.80
2019-03-21T16:27:58.129Z,33.80
2019-03-21T16:30:26.520Z,34.20
2019-03-21T16:32:54.920Z,34.90
2019-03-21T16:35:23.385Z,34.70
2019-03-21T16:37:51.760Z,34.40
2019-03-21T16:40:20.168Z,36.60
2019-03-21T16:42:48.552Z,36.60
2019-03-21T16:45:17.066Z,36.70
2019-03-21T16:47:45.472Z,38.70
2019-03-21T16:50:14.690Z,38.40
2019-03-21T16:52:43.080Z,38.30
2019-03-21T16:55:12.714Z,39.00
2019-03-21T16:57:41.095Z,39.20
2019-03-21T17:00:17.873Z,40.00
2019-03-21T17:02:46.009Z,40.90
2019-03-21T17:05:14.481Z,41.90
2019-03-21T17:07:42.856Z,42.80
2019-03-21T17:10:16.016Z,43.80
2019-03-21T17:12:44.403Z,44.80
2019-03-21T17:15:13.650Z,46.60
2019-03-21T17:17:42.099Z,48.80
2019-03-21T17:20:12.025Z,51.60
2019-03-21T17:22:40.450Z,53.50
2019-03-21T17:25:10.115Z,55.70
2019-03-21T17:27:38.512Z,57.30
2019-03-21T17:30:14.587Z,57.80
2019-03-21T17:32:43.064Z,59.10
2019-03-21T17:35:11.692Z,60.00
2019-03-21T17:37:40.073Z,62.10
2019-03-21T17:40:11.547Z,65.40
2019-03-21T17:42:39.928Z,66.60
2019-03-21T17:45:18.187Z,68.80
2019-03-21T17:47:46.644Z,70.90
2019-03-21T17:50:18.765Z,71.80
2019-03-21T17:52:47.440Z,72.20
2019-03-21T17:55:15.967Z,72.10
2019-03-21T17:57:44.349Z,73.90
2019-03-21T18:00:27.644Z,74.40
2019-03-21T18:02:56.103Z,75.00
2019-03-21T18:05:24.796Z,77.30
2019-03-21T18:07:53.415Z,78.80
2019-03-21T18:10:26.913Z,80.10
2019-03-21T18:12:55.477Z,81.70
2019-03-21T18:15:23.938Z,82.80
2019-03-21T18:17:52.311Z,83.40
2019-03-21T18:20:20.715Z,83.90
2019-03-21T18:22:49.104Z,84.40
2019-03-21T18:25:17.499Z,84.70
2019-03-21T18:27:45.887Z,84.90
2019-03-21T18:30:14.547Z,84.90
2019-03-21T18:32:42.930Z,85.10
2019-03-21T18:35:12.344Z,85.70
2019-03-21T18:37:40.859Z,86.70
2019-03-21T18:40:11.280Z,87.50
2019-03-21T18:42:39.673Z,88.30
2019-03-21T18:45:10.596Z,90.00
2019-03-21T18:47:38.993Z,90.00
2019-03-21T18:50:10.128Z,90.40
2019-03-21T18:52:38.575Z,91.00
2019-03-21T18:55:07.916Z,91.00
2019-03-21T18:57:36.296Z,91.10
2019-03-21T19:00:11.081Z,91.20
2019-03-21T19:02:39.460Z,91.80
2019-03-21T19:05:27.186Z,92.00
2019-03-21T19:07:55.564Z,92.30
2019-03-21T19:10:23.986Z,92.80
2019-03-21T19:12:52.371Z,92.70
2019-03-21T19:15:20.831Z,92.80
2019-03-21T19:17:49.235Z,93.00
2019-03-21T19:20:18.783Z,93.00
2019-03-21T19:22:47.919Z,93.20
2019-03-21T19:25:18.728Z,93.40
2019-03-21T19:27:47.175Z,93.80
2019-03-21T19:30:19.868Z,94.10
2019-03-21T19:32:48.244Z,94.00
2019-03-21T19:35:16.871Z,94.30
2019-03-21T19:37:45.265Z,94.70
2019-03-21T19:40:18.755Z,94.60
2019-03-21T19:42:47.196Z,95.20
2019-03-21T19:45:20.092Z,94.80
2019-03-21T19:47:48.570Z,95.00
2019-03-21T19:50:19.407Z,95.00
2019-03-21T19:52:47.942Z,95.10
2019-03-21T19:55:16.398Z,95.20
2019-03-21T19:57:44.856Z,95.40
2019-03-21T20:00:23.900Z,95.40
2019-03-21T20:02:52.349Z,95.80
2019-03-21T20:05:20.896Z,96.10
2019-03-21T20:07:49.348Z,96.30
2019-03-21T20:10:19.968Z,96.70
2019-03-21T20:12:48.388Z,97.10
2019-03-21T20:15:18.641Z,97.30
2019-03-21T20:17:47.100Z,97.50
2019-03-21T20:20:18.978Z,97.80
2019-03-21T20:22:47.424Z,97.50
2019-03-21T20:25:16.265Z,97.70
2019-03-21T20:27:44.652Z,98.00
2019-03-21T20:30:21.132Z,98.20
2019-03-21T20:32:49.521Z,98.30
2019-03-21T20:35:17.976Z,98.10
2019-03-21T20:37:46.499Z,97.90
2019-03-21T20:40:19.470Z,98.20
2019-03-21T20:42:47.913Z,98.40
2019-03-21T20:45:18.842Z,98.70
2019-03-21T20:47:47.289Z,99.10
2019-03-21T20:50:16.048Z,99.30
2019-03-21T20:52:44.433Z,99.50
2019-03-21T20:55:12.888Z,99.90
2019-03-21T20:57:41.265Z,99.70
2019-03-21T21:00:18.426Z,99.70
2019-03-21T21:02:46.801Z,99.70
2019-03-21T21:05:15.322Z,99.90
2019-03-21T21:07:43.843Z,99.90
2019-03-21T21:10:13.462Z,99.90
2019-03-21T21:12:41.921Z,99.90
2019-03-21T21:15:13.213Z,99.90
2019-03-21T21:17:43.124Z,99.90
2019-03-21T21:20:14.777Z,99.90
2019-03-21T21:22:43.296Z,99.90
2019-03-21T21:25:12.059Z,99.90
2019-03-21T21:27:49.135Z,99.90
2019-03-21T21:30:16.267Z,99.90
2019-03-21T21:32:44.719Z,99.90
2019-03-21T21:35:13.182Z,99.90
2019-03-21T21:37:41.560Z,99.90
2019-03-21T21:40:11.396Z,99.90
2019-03-21T21:42:39.784Z,99.90
2019-03-21T21:45:10.707Z,99.90
2019-03-21T21:47:39.084Z,99.90
2019-03-21T21:50:10.511Z,99.90
2019-03-21T21:52:42.134Z,99.90
2019-03-21T21:55:09.528Z,99.90
2019-03-21T21:57:37.921Z,99.90
2019-03-21T22:00:17.651Z,99.90
2019-03-21T22:02:46.040Z,99.90
2019-03-21T22:05:14.496Z,99.90
2019-03-21T22:07:42.882Z,99.90
2019-03-21T22:10:11.399Z,99.90
2019-03-21T22:12:39.785Z,99.90
2019-03-21T22:15:13.286Z,99.90
2019-03-21T22:17:41.665Z,99.90
2019-03-21T22:20:12.592Z,99.90
2019-03-21T22:22:40.979Z,99.90
2019-03-21T22:25:10.337Z,99.90
2019-03-21T22:27:38.711Z,99.90
2019-03-21T22:30:15.486Z,99.90
2019-03-21T22:32:43.935Z,99.90
2019-03-21T22:35:12.317Z,99.90
2019-03-21T22:37:40.715Z,99.90
2019-03-21T22:40:17.079Z,99.90
2019-03-21T22:42:45.484Z,99.90
2019-03-21T22:45:18.719Z,99.90
2019-03-21T22:47:50.166Z,99.90
2019-03-21T22:50:17.667Z,99.90
2019-03-21T22:52:46.391Z,99.90
2019-03-21T22:55:14.771Z,99.90
2019-03-21T22:57:43.168Z,99.90
2019-03-21T23:00:17.424Z,99.90
2019-03-21T23:02:45.879Z,99.90
2019-03-21T23:05:14.829Z,99.90
2019-03-21T23:07:43.200Z,99.90
2019-03-21T23:10:12.732Z,99.90
2019-03-21T23:12:41.651Z,99.90
2019-03-21T23:15:11.485Z,99.90
2019-03-21T23:17:39.867Z,99.90
2019-03-21T23:20:11.559Z,99.90
2019-03-21T23:22:39.949Z,99.90
2019-03-21T23:25:09.853Z,99.90
2019-03-21T23:27:38.320Z,99.90
2019-03-21T23:30:17.606Z,99.90
2019-03-21T23:32:46.063Z,99.90
2019-03-21T23:35:14.784Z,99.90
2019-03-21T23:37:43.165Z,99.90
2019-03-21T23:40:13.869Z,99.90
2019-03-21T23:42:42.315Z,99.90
2019-03-21T23:45:13.064Z,99.90
2019-03-21T23:47:41.448Z,99.90
2019-03-21T23:50:11.376Z,99.90
2019-03-21T23:52:39.760Z,99.90
2019-03-21T23:55:09.903Z,99.90
2019-03-21T23:57:38.283Z,99.90
